Time;durP1;ratioP1;P1;durP2;ratioP2;P2;SDS_P1;SDS_P2;PMS_P1;PMS_P2;Temp;Humidity;BMP_temperature;BMP_pressure;BME280_temperature;BME280_humidity;BME280_pressure;Samples;Min_cycle;Max_cycle;Signal;HPM_P1;HPM_P2
2023/05/18 00:01:11;;;;;;;0.45;0.30;;;7.90;99.90;;;;;;4992682;28;20079;-73
2023/05/18 00:03:37;;;;;;;1.27;0.40;;;7.90;99.90;;;;;;5010571;28;20112;-73
2023/05/18 00:06:06;;;;;;;0.80;0.20;;;7.80;99.90;;;;;;4992933;28;20054;-73
2023/05/18 00:08:33;;;;;;;0.15;0.15;;;7.80;99.90;;;;;;4992970;28;20038;-73
2023/05/18 00:10:59;;;;;;;1.25;0.50;;;7.70;1.00;;;;;;5020118;28;20133;-73
2023/05/18 00:13:24;;;;;;;;;;;7.70;1.00;;;;;;5011383;28;20045;-73
2023/05/18 00:15:50;;;;;;;1.40;0.50;;;7.70;51.20;;;;;;4993104;28;19917;-73
2023/05/18 00:18:16;;;;;;;0.60;0.30;;;7.60;99.90;;;;;;4992830;28;20081;-71
2023/05/18 00:20:42;;;;;;;2.83;0.82;;;7.60;99.90;;;;;;4993153;28;20030;-72
2023/05/18 00:23:09;;;;;;;;;;;7.60;99.90;;;;;;4993043;28;20044;-72
2023/05/18 00:25:35;;;;;;;1.42;0.50;;;7.60;91.30;;;;;;5008368;28;19921;-72
2023/05/18 00:28:00;;;;;;;0.68;0.40;;;7.60;1.00;;;;;;4976614;28;20048;-71
2023/05/18 00:30:26;;;;;;;1.17;0.30;;;7.60;1.00;;;;;;4992607;28;20117;-72
2023/05/18 00:32:52;;;;;;;0.60;0.38;;;7.60;1.00;;;;;;4992244;28;20069;-72
2023/05/18 00:35:17;;;;;;;1.67;0.43;;;7.50;1.00;;;;;;4992404;28;20128;-72
2023/05/18 00:37:43;;;;;;;0.85;0.50;;;7.50;56.30;;;;;;4992190;28;20088;-73
2023/05/18 00:40:09;;;;;;;0.52;0.40;;;7.50;99.90;;;;;;4992534;28;20058;-73
2023/05/18 00:42:35;;;;;;;0.50;0.30;;;7.50;99.90;;;;;;4947927;28;20050;-72
2023/05/18 00:45:01;;;;;;;1.15;0.50;;;7.50;99.90;;;;;;4975823;28;20060;-72
2023/05/18 00:47:27;;;;;;;0.45;0.35;;;7.60;99.90;;;;;;4992245;28;20029;-72
2023/05/18 00:49:53;;;;;;;0.50;0.30;;;7.60;28.20;;;;;;4991388;28;20041;-72
2023/05/18 00:52:20;;;;;;;1.80;0.52;;;7.60;5.10;;;;;;4991230;28;20054;-72
2023/05/18 00:54:46;;;;;;;1.15;0.60;;;7.60;1.00;;;;;;4991221;28;20053;-72
2023/05/18 00:57:11;;;;;;;0.85;0.35;;;7.60;1.00;;;;;;4991933;28;20050;-73
2023/05/18 00:59:38;;;;;;;0.40;0.30;;;7.60;23.20;;;;;;4992258;28;20477;-72
2023/05/18 01:02:04;;;;;;;0.60;0.40;;;7.60;96.70;;;;;;5014633;28;20104;-72
2023/05/18 01:04:30;;;;;;;1.83;0.45;;;7.60;99.90;;;;;;4992073;28;20048;-72
2023/05/18 01:06:57;;;;;;;0.25;0.17;;;7.60;99.90;;;;;;4989704;28;20046;-72
2023/05/18 01:09:23;;;;;;;0.85;0.28;;;7.70;99.90;;;;;;4992165;28;20038;-72
2023/05/18 01:12:03;;;;;;;0.28;0.22;;;7.70;99.90;;;;;;4991735;28;20088;-73
2023/05/18 01:14:44;;;;;;;0.40;0.20;;;7.70;99.90;;;;;;4992040;28;20370;-72
2023/05/18 01:17:38;;;;;;;0.95;0.30;;;7.70;57.60;;;;;;4991824;28;20571;-72
2023/05/18 01:20:10;;;;;;;0.98;0.40;;;7.70;66.30;;;;;;4992195;28;20454;-72
2023/05/18 01:22:49;;;;;;;0.52;0.30;;;7.70;18.40;;;;;;4991760;28;20042;-72
2023/05/18 01:25:40;;;;;;;0.20;0.20;;;7.80;99.90;;;;;;4991971;28;20136;-72
2023/05/18 01:28:12;;;;;;;0.57;0.28;;;7.80;99.90;;;;;;4991726;28;20406;-72
2023/05/18 01:30:40;;;;;;;0.38;0.10;;;7.80;99.90;;;;;;4992142;28;20041;-72
2023/05/18 01:33:12;;;;;;;0.90;0.30;;;7.80;99.90;;;;;;4991880;28;20046;-72
2023/05/18 01:35:48;;;;;;;0.85;0.45;;;7.80;99.90;;;;;;4991677;28;20038;-73
2023/05/18 01:38:19;;;;;;;0.90;0.20;;;7.90;94.70;;;;;;4991445;28;20061;-72
2023/05/18 01:41:12;;;;;;;0.93;0.40;;;7.90;1.00;;;;;;4992012;28;20070;-73
2023/05/18 01:43:50;;;;;;;0.30;0.15;;;7.90;1.00;;;;;;4991984;28;20073;-72
2023/05/18 01:46:35;;;;;;;0.22;0.20;;;8.00;1.00;;;;;;4990818;28;20555;-72
2023/05/18 01:49:11;;;;;;;1.00;0.40;;;8.00;1.00;;;;;;4991208;28;21320;-72
2023/05/18 01:51:40;;;;;;;0.32;0.20;;;8.00;1.00;;;;;;4991452;28;20046;-73
2023/05/18 01:54:08;;;;;;;0.32;0.17;;;8.00;29.20;;;;;;4991491;28;20513;-72
2023/05/18 01:56:35;;;;;;;0.40;0.20;;;7.90;44.90;;;;;;4989501;28;20085;-73
2023/05/18 01:59:00;;;;;;;0.15;0.13;;;7.90;73.00;;;;;;4992267;28;20547;-72
2023/05/18 02:01:26;;;;;;;0.60;0.20;;;8.00;8.50;;;;;;4995651;28;20037;-73
2023/05/18 02:03:52;;;;;;;0.47;0.25;;;8.00;1.00;;;;;;4995352;28;20041;-72
2023/05/18 02:06:18;;;;;;;0.52;0.20;;;8.00;1.00;;;;;;4995024;28;20061;-72
2023/05/18 02:08:44;;;;;;;0.32;0.20;;;8.00;1.00;;;;;;4969662;28;20049;-72
2023/05/18 02:11:09;;;;;;;0.20;0.20;;;8.00;76.30;;;;;;4995501;28;20478;-72
2023/05/18 02:13:35;;;;;;;0.55;0.20;;;8.10;35.70;;;;;;4995004;28;20058;-72
2023/05/18 02:16:04;;;;;;;0.77;0.40;;;8.00;73.80;;;;;;4995084;28;20046;-72
2023/05/18 02:18:32;;;;;;;1.65;0.30;;;8.00;98.80;;;;;;4994513;28;20085;-72
2023/05/18 02:20:59;;;;;;;0.28;0.20;;;8.00;99.90;;;;;;4995030;28;20045;-72
2023/05/18 02:23:25;;;;;;;0.52;0.20;;;7.90;99.90;;;;;;4979204;28;20136;-72
2023/05/18 02:25:54;;;;;;;0.25;0.20;;;8.00;99.90;;;;;;4994905;28;20069;-72
2023/05/18 02:28:20;;;;;;;0.57;0.25;;;8.00;99.90;;;;;;4994690;28;20041;-72
2023/05/18 02:30:46;;;;;;;0.40;0.22;;;8.00;99.90;;;;;;4995241;28;20056;-72
2023/05/18 02:33:11;;;;;;;0.17;0.17;;;8.00;99.90;;;;;;4994829;28;20489;-72
2023/05/18 02:35:37;;;;;;;0.30;0.30;;;8.00;99.90;;;;;;4994890;28;20492;-72
2023/05/18 02:38:03;;;;;;;0.57;0.40;;;8.00;99.90;;;;;;4994443;28;20089;-72
2023/05/18 02:40:29;;;;;;;0.52;0.20;;;8.10;99.90;;;;;;4994683;28;20053;-72
2023/05/18 02:42:54;;;;;;;0.47;0.20;;;8.00;99.90;;;;;;4978155;28;20050;-72
2023/05/18 02:45:20;;;;;;;0.77;0.20;;;8.10;99.90;;;;;;4994376;28;20042;-72
2023/05/18 02:47:46;;;;;;;1.45;0.60;;;8.00;73.20;;;;;;4994255;28;20073;-72
2023/05/18 02:50:12;;;;;;;1.02;0.40;;;8.00;1.00;;;;;;4994948;28;20049;-72
2023/05/18 02:52:38;;;;;;;1.63;0.77;;;8.00;1.00;;;;;;4994678;28;20041;-72
2023/05/18 02:55:05;;;;;;;1.55;0.60;;;8.00;1.00;;;;;;5012357;28;20048;-72
2023/05/18 02:57:31;;;;;;;2.00;0.77;;;8.00;7.10;;;;;;4994790;28;20124;-72
2023/05/18 02:59:57;;;;;;;1.75;0.70;;;8.10;99.90;;;;;;4994653;28;20041;-72
2023/05/18 03:02:23;;;;;;;2.03;0.60;;;8.10;99.90;;;;;;4995711;28;20414;-72
2023/05/18 03:04:52;;;;;;;1.25;0.70;;;8.10;99.90;;;;;;4995658;28;20108;-73
2023/05/18 03:07:22;;;;;;;2.35;0.68;;;8.10;71.40;;;;;;4995309;28;20042;-72
2023/05/18 03:09:47;;;;;;;3.13;1.10;;;8.10;87.60;;;;;;4995327;28;20045;-72
2023/05/18 03:12:13;;;;;;;2.70;0.82;;;8.10;9.20;;;;;;5013208;28;20457;-72
2023/05/18 03:14:39;;;;;;;1.95;0.88;;;8.20;1.00;;;;;;4995342;28;20060;-72
2023/05/18 03:17:04;;;;;;;2.05;0.93;;;8.20;14.00;;;;;;4995133;28;20045;-72
2023/05/18 03:19:34;;;;;;;1.73;0.90;;;8.20;25.40;;;;;;4995135;28;20109;-73
2023/05/18 03:21:59;;;;;;;2.63;0.80;;;8.20;1.00;;;;;;4979100;28;20510;-72
2023/05/18 03:24:28;;;;;;;2.00;0.90;;;8.20;28.30;;;;;;5012476;28;20144;-73
2023/05/18 03:26:55;;;;;;;0.93;0.47;;;8.20;82.80;;;;;;4978795;28;20050;-73
2023/05/18 03:29:22;;;;;;;2.13;0.63;;;8.20;74.90;;;;;;5012725;28;20128;-72
2023/05/18 03:31:47;;;;;;;2.65;0.70;;;8.20;97.00;;;;;;4995107;28;20049;-73
2023/05/18 03:34:13;;;;;;;2.42;0.70;;;8.20;44.10;;;;;;4994915;28;20041;-73
2023/05/18 03:36:41;;;;;;;1.15;0.50;;;8.20;45.90;;;;;;4975361;28;20038;-72
2023/05/18 03:39:07;;;;;;;0.77;0.57;;;8.20;97.80;;;;;;4979561;28;20092;-73
2023/05/18 03:41:33;;;;;;;0.77;0.30;;;8.20;92.20;;;;;;4994584;28;20079;-73
2023/05/18 03:43:59;;;;;;;1.58;0.60;;;8.20;99.90;;;;;;4994667;28;20058;-73
2023/05/18 03:46:25;;;;;;;1.17;0.60;;;8.20;99.90;;;;;;4978684;28;20060;-73
2023/05/18 03:48:52;;;;;;;1.50;0.60;;;8.20;99.90;;;;;;4977902;28;20095;-72
2023/05/18 03:51:18;;;;;;;0.90;0.40;;;8.20;99.90;;;;;;4994605;28;20107;-72
2023/05/18 03:53:44;;;;;;;1.45;0.30;;;8.20;99.90;;;;;;5012545;28;20046;-73
2023/05/18 03:56:12;;;;;;;0.93;0.60;;;8.20;99.90;;;;;;4994108;28;20038;-72
2023/05/18 03:58:38;;;;;;;1.02;0.50;;;8.20;99.90;;;;;;4994146;28;20042;-71
2023/05/18 04:01:04;;;;;;;0.30;0.30;;;8.20;99.90;;;;;;4993815;28;20065;-73
2023/05/18 04:03:30;;;;;;;0.60;0.30;;;8.20;99.90;;;;;;4994164;28;20101;-72
2023/05/18 04:05:55;;;;;;;0.35;0.25;;;8.30;99.90;;;;;;4994122;28;20140;-72
2023/05/18 04:08:24;;;;;;;0.82;0.30;;;8.30;99.90;;;;;;4994094;28;20128;-73
2023/05/18 04:10:50;;;;;;;0.40;0.20;;;8.30;99.90;;;;;;4993714;28;20516;-72
2023/05/18 04:13:16;;;;;;;;;;;8.30;99.90;;;;;;4994654;28;20064;-71
2023/05/18 04:15:42;;;;;;;0.70;0.30;;;8.30;99.90;;;;;;4994015;28;20353;-73
2023/05/18 04:18:09;;;;;;;0.55;0.28;;;8.30;99.90;;;;;;4994111;28;20153;-72
2023/05/18 04:20:36;;;;;;;0.82;0.43;;;8.30;99.90;;;;;;4992771;28;20061;-73
2023/05/18 04:23:04;;;;;;;0.60;0.25;;;8.40;99.90;;;;;;4994006;28;20104;-72
2023/05/18 04:25:30;;;;;;;0.68;0.30;;;8.40;1.00;;;;;;4993528;28;20442;-73
2023/05/18 04:27:56;;;;;;;0.93;0.22;;;8.50;1.00;;;;;;4993458;28;20049;-72
2023/05/18 04:30:22;;;;;;;0.40;0.15;;;8.50;99.90;;;;;;4992610;28;20436;-73
2023/05/18 04:32:48;;;;;;;0.80;0.40;;;8.50;99.90;;;;;;4990679;28;20461;-72
2023/05/18 04:35:15;;;;;;;0.30;0.30;;;8.50;99.90;;;;;;4993205;28;20054;-73
2023/05/18 04:37:41;;;;;;;0.52;0.20;;;8.60;99.90;;;;;;5009451;28;20053;-73
2023/05/18 04:40:11;;;;;;;0.60;0.20;;;8.60;99.90;;;;;;4992947;28;20417;-72
2023/05/18 04:42:44;;;;;;;0.43;0.28;;;8.70;99.90;;;;;;4993431;28;20516;-73
2023/05/18 04:45:16;;;;;;;0.28;0.28;;;8.70;99.90;;;;;;4993414;28;20050;-73
2023/05/18 04:47:51;;;;;;;0.88;0.38;;;8.80;99.90;;;;;;4993239;28;20038;-73
2023/05/18 04:50:17;;;;;;;0.30;0.20;;;8.70;99.90;;;;;;4992968;28;20046;-73
2023/05/18 04:52:47;;;;;;;0.45;0.28;;;8.80;99.90;;;;;;4977326;28;20377;-72
2023/05/18 04:55:27;;;;;;;0.60;0.30;;;8.80;99.90;;;;;;5009810;28;20109;-72
2023/05/18 04:57:55;;;;;;;0.55;0.38;;;8.80;99.90;;;;;;4993463;28;20052;-73
2023/05/18 05:00:23;;;;;;;0.80;0.47;;;8.90;99.90;;;;;;4974922;28;20045;-73
2023/05/18 05:02:49;;;;;;;1.15;0.40;;;8.90;99.90;;;;;;4991986;28;20077;-72
2023/05/18 05:05:15;;;;;;;0.35;0.32;;;8.90;99.90;;;;;;5009017;28;20131;-71
2023/05/18 05:07:40;;;;;;;0.50;0.40;;;8.90;99.90;;;;;;4993201;28;20453;-73
2023/05/18 05:10:06;;;;;;;0.75;0.50;;;8.90;99.90;;;;;;4992488;28;20560;-73
2023/05/18 05:12:34;;;;;;;0.30;0.30;;;8.90;99.90;;;;;;4985649;28;20103;-72
2023/05/18 05:14:59;;;;;;;1.70;0.60;;;9.00;99.90;;;;;;4993142;28;20061;-72
2023/05/18 05:17:25;;;;;;;0.65;0.45;;;9.00;74.70;;;;;;4992591;28;20057;-73
2023/05/18 05:19:51;;;;;;;1.45;0.75;;;9.00;34.40;;;;;;4992999;28;20136;-73
2023/05/18 05:22:18;;;;;;;2.20;0.80;;;9.00;1.00;;;;;;4992503;28;20082;-73
2023/05/18 05:24:44;;;;;;;3.47;0.70;;;9.00;1.00;;;;;;4992828;28;20117;-74
2023/05/18 05:27:10;;;;;;;1.25;0.57;;;9.00;1.00;;;;;;4991317;28;20518;-74
2023/05/18 05:29:35;;;;;;;0.80;0.50;;;9.00;1.00;;;;;;4992418;28;20041;-73
2023/05/18 05:32:01;;;;;;;1.20;0.50;;;9.10;1.00;;;;;;4993160;28;20041;-73
2023/05/18 05:34:27;;;;;;;1.90;0.70;;;9.20;21.00;;;;;;4996685;28;20100;-73
2023/05/18 05:36:52;;;;;;;3.08;0.70;;;9.20;1.00;;;;;;4996274;28;20073;-73
2023/05/18 05:39:18;;;;;;;1.52;0.50;;;9.30;45.80;;;;;;4996898;28;20115;-73
2023/05/18 05:41:44;;;;;;;1.48;0.40;;;9.30;1.00;;;;;;4996368;28;20061;-74
2023/05/18 05:44:09;;;;;;;1.38;0.50;;;9.40;1.00;;;;;;4997099;28;20048;-73
2023/05/18 05:46:35;;;;;;;1.85;0.70;;;9.50;1.00;;;;;;4996366;28;20076;-73
2023/05/18 05:49:01;;;;;;;0.77;0.50;;;9.50;1.00;;;;;;4996846;28;20069;-72
2023/05/18 05:51:27;;;;;;;0.88;0.52;;;9.60;1.00;;;;;;4996510;28;20084;-72
2023/05/18 05:53:52;;;;;;;1.33;0.40;;;9.70;1.00;;;;;;4996851;28;20113;-73
2023/05/18 05:56:18;;;;;;;1.48;0.50;;;9.70;1.00;;;;;;4997192;28;20064;-73
2023/05/18 05:58:44;;;;;;;0.70;0.40;;;9.80;1.00;;;;;;4993263;28;20702;-72
2023/05/18 06:01:10;;;;;;;1.13;0.50;;;9.90;1.00;;;;;;4995713;28;20103;-72
2023/05/18 06:03:36;;;;;;;1.63;0.77;;;9.90;1.00;;;;;;4995663;28;20046;-72
2023/05/18 06:06:01;;;;;;;2.08;0.80;;;9.90;1.00;;;;;;4983560;28;20077;-72
2023/05/18 06:08:30;;;;;;;1.83;0.60;;;9.90;1.00;;;;;;4996351;28;20126;-72
2023/05/18 06:10:56;;;;;;;1.20;0.50;;;10.00;1.00;;;;;;4995682;28;20167;-72
2023/05/18 06:13:21;;;;;;;1.83;0.60;;;10.00;99.90;;;;;;4996024;28;20052;-73
2023/05/18 06:15:47;;;;;;;2.40;0.60;;;10.00;99.90;;;;;;4979323;28;20038;-73
2023/05/18 06:18:13;;;;;;;0.95;0.52;;;10.00;1.00;;;;;;4995247;28;20060;-72
2023/05/18 06:20:38;;;;;;;0.70;0.45;;;10.10;1.00;;;;;;5013103;28;20048;-73
2023/05/18 06:23:04;;;;;;;1.23;0.50;;;10.10;1.00;;;;;;4996164;28;20501;-73
2023/05/18 06:25:30;;;;;;;1.83;0.70;;;10.20;1.00;;;;;;4995444;28;20064;-73
2023/05/18 06:27:55;;;;;;;4.15;0.80;;;10.30;1.00;;;;;;4980007;28;20545;-73
2023/05/18 06:30:21;;;;;;;2.70;0.85;;;10.20;1.00;;;;;;4980008;28;20481;-72
2023/05/18 06:32:47;;;;;;;1.73;0.80;;;10.20;99.90;;;;;;4993781;28;20504;-73
2023/05/18 06:35:13;;;;;;;1.10;0.50;;;10.20;99.90;;;;;;4995235;28;20046;-72
2023/05/18 06:37:38;;;;;;;1.05;0.60;;;10.30;99.90;;;;;;4992598;28;20149;-69
2023/05/18 06:40:06;;;;;;;2.15;0.80;;;10.30;99.90;;;;;;4994620;28;20081;-71
2023/05/18 06:42:32;;;;;;;2.33;0.90;;;10.30;99.90;;;;;;4994155;28;20042;-70
2023/05/18 06:44:58;;;;;;;;;;;10.30;1.00;;;;;;4994266;28;20355;-69
2023/05/18 06:47:24;;;;;;;1.00;0.68;;;10.40;99.90;;;;;;4993885;28;20059;-70
2023/05/18 06:49:50;;;;;;;1.90;0.80;;;10.50;99.90;;;;;;5027756;28;20057;-70
2023/05/18 06:52:15;;;;;;;1.48;0.65;;;10.60;99.90;;;;;;5012990;28;20062;-70
2023/05/18 06:54:42;;;;;;;2.00;0.95;;;10.70;99.90;;;;;;4994589;28;20477;-71
2023/05/18 06:57:08;;;;;;;2.78;0.82;;;10.80;99.90;;;;;;4994552;28;20050;-71
2023/05/18 06:59:33;;;;;;;2.72;1.10;;;10.70;99.90;;;;;;5022907;28;20492;-71
2023/05/18 07:01:59;;;;;;;2.90;0.98;;;10.70;99.90;;;;;;5010902;28;20384;-71
2023/05/18 07:04:25;;;;;;;1.45;0.75;;;10.80;99.90;;;;;;5017771;28;20442;-71
2023/05/18 07:06:54;;;;;;;1.50;0.70;;;10.90;99.90;;;;;;4989330;28;20034;-71
2023/05/18 07:09:21;;;;;;;1.50;0.70;;;11.00;99.90;;;;;;4994347;28;20390;-72
2023/05/18 07:11:47;;;;;;;3.38;0.80;;;11.10;99.90;;;;;;4995694;28;20488;-71
2023/05/18 07:14:13;;;;;;;3.75;1.02;;;11.20;99.90;;;;;;4994583;28;20080;-71
2023/05/18 07:16:38;;;;;;;2.72;0.85;;;11.20;99.90;;;;;;4992372;28;20052;-70
2023/05/18 07:19:04;;;;;;;2.08;1.00;;;11.30;99.90;;;;;;5016486;28;20091;-72
2023/05/18 07:21:30;;;;;;;3.20;0.85;;;11.30;92.40;;;;;;5011841;28;20123;-71
2023/05/18 07:23:56;;;;;;;1.52;0.70;;;11.40;56.60;;;;;;4978136;28;20034;-71
2023/05/18 07:26:22;;;;;;;1.20;0.70;;;11.40;1.00;;;;;;4993465;28;20052;-71
2023/05/18 07:28:48;;;;;;;1.58;0.60;;;11.50;28.90;;;;;;5011966;28;20453;-71
2023/05/18 07:31:15;;;;;;;;;;;11.60;99.90;;;;;;4993450;28;20089;-71
2023/05/18 07:33:43;;;;;;;1.67;0.75;;;11.70;85.90;;;;;;5011413;28;19939;-71
2023/05/18 07:36:09;;;;;;;4.32;1.20;;;11.80;97.70;;;;;;4990906;28;20049;-71
2023/05/18 07:38:35;;;;;;;1.98;0.98;;;11.80;52.60;;;;;;5020726;28;20478;-70
2023/05/18 07:41:01;;;;;;;1.83;0.90;;;11.90;79.90;;;;;;4990100;28;20132;-70
2023/05/18 07:43:26;;;;;;;5.68;1.20;;;12.00;1.00;;;;;;4992198;28;20104;-69
2023/05/18 07:45:52;;;;;;;3.10;1.08;;;12.20;99.90;;;;;;4989709;28;20146;-70
2023/05/18 07:48:18;;;;;;;1.88;0.95;;;12.20;1.00;;;;;;4994303;28;20400;-70
2023/05/18 07:50:43;;;;;;;3.65;1.17;;;12.30;1.00;;;;;;4992699;28;20473;-70
2023/05/18 07:53:09;;;;;;;2.80;1.20;;;12.40;1.00;;;;;;4993028;28;20410;-69
2023/05/18 07:55:35;;;;;;;2.72;0.93;;;12.60;1.00;;;;;;4988582;28;20477;-69
2023/05/18 07:58:00;;;;;;;5.68;1.10;;;12.70;99.90;;;;;;5006915;28;20057;-71
2023/05/18 08:00:27;;;;;;;2.67;1.10;;;12.70;99.90;;;;;;5017340;28;20057;-70
2023/05/18 08:02:52;;;;;;;3.53;1.30;;;12.70;99.90;;;;;;5018356;28;20387;-77
2023/05/18 08:05:21;;;;;;;4.65;1.63;;;12.60;99.90;;;;;;4984840;28;20132;-78
2023/05/18 08:07:47;;;;;;;4.65;1.20;;;12.70;99.90;;;;;;5010512;28;20073;-69
2023/05/18 08:10:13;;;;;;;3.22;1.10;;;12.90;99.90;;;;;;4977297;28;20099;-71
2023/05/18 08:12:38;;;;;;;2.10;0.82;;;13.00;99.90;;;;;;4993171;28;20038;-72
2023/05/18 08:15:05;;;;;;;2.97;1.23;;;12.80;1.00;;;;;;4994635;28;20441;-74
2023/05/18 08:17:30;;;;;;;2.10;0.77;;;12.70;99.90;;;;;;4979230;28;20045;-73
2023/05/18 08:19:56;;;;;;;2.75;0.88;;;12.80;99.90;;;;;;4992044;28;20262;-73
2023/05/18 08:22:22;;;;;;;2.80;0.85;;;12.90;1.00;;;;;;4999487;28;20396;-73
2023/05/18 08:24:47;;;;;;;2.88;1.00;;;13.00;99.90;;;;;;4991625;28;20049;-70
2023/05/18 08:27:13;;;;;;;1.02;0.70;;;13.20;1.00;;;;;;4976133;28;20044;-70
2023/05/18 08:29:39;;;;;;;2.90;1.10;;;13.40;99.90;;;;;;4993333;28;20061;-70
2023/05/18 08:32:06;;;;;;;3.47;1.40;;;13.40;99.90;;;;;;5007975;28;20405;-70
2023/05/18 08:34:31;;;;;;;3.28;1.13;;;13.40;99.90;;;;;;5008641;28;20407;-70
2023/05/18 08:36:57;;;;;;;4.20;1.30;;;13.30;99.90;;;;;;4990409;28;20053;-69
2023/05/18 08:39:23;;;;;;;2.15;0.77;;;13.50;99.90;;;;;;4989149;28;20062;-69
2023/05/18 08:42:00;;;;;;;2.22;0.85;;;13.80;99.90;;;;;;4972235;28;20271;-70
2023/05/18 08:44:33;;;;;;;2.42;0.90;;;14.20;99.90;;;;;;4988078;28;20147;-69
2023/05/18 08:46:59;;;;;;;2.45;0.90;;;14.30;99.90;;;;;;4987187;28;20044;-70
2023/05/18 08:49:26;;;;;;;2.72;1.20;;;14.40;99.90;;;;;;4990617;28;20034;-69
2023/05/18 08:51:59;;;;;;;2.08;0.90;;;14.30;99.90;;;;;;4988864;28;20053;-69
2023/05/18 08:54:25;;;;;;;2.50;0.90;;;14.30;99.90;;;;;;5009426;28;20054;-69
2023/05/18 08:56:52;;;;;;;2.95;0.90;;;14.00;99.90;;;;;;5015663;28;20038;-69
2023/05/18 08:59:24;;;;;;;1.40;0.65;;;14.00;99.90;;;;;;5010774;28;20037;-69
2023/05/18 09:01:50;;;;;;;1.73;1.15;;;14.20;99.90;;;;;;4990446;28;20041;-71
2023/05/18 09:04:18;;;;;;;2.70;1.02;;;14.40;99.90;;;;;;4991623;28;20056;-72
2023/05/18 09:06:46;;;;;;;3.30;1.13;;;14.80;99.90;;;;;;4991863;28;20046;-73
2023/05/18 09:09:13;;;;;;;2.70;0.90;;;14.90;99.90;;;;;;4992644;28;20125;-73
2023/05/18 09:11:39;;;;;;;3.55;1.20;;;15.00;99.90;;;;;;5021114;28;20137;-75
2023/05/18 09:14:05;;;;;;;2.90;1.00;;;14.90;99.90;;;;;;4990377;28;20042;-73
2023/05/18 09:16:32;;;;;;;1.92;0.80;;;15.10;99.90;;;;;;4984550;28;20052;-74
2023/05/18 09:18:58;;;;;;;3.50;1.00;;;15.10;99.90;;;;;;4989131;28;20104;-71
2023/05/18 09:21:25;;;;;;;2.08;0.88;;;15.30;99.90;;;;;;4992298;28;20042;-72
2023/05/18 09:23:51;;;;;;;2.65;1.00;;;15.80;99.90;;;;;;4973533;28;20377;-70
2023/05/18 09:26:17;;;;;;;;;;;15.50;99.90;;;;;;5008997;28;20089;-70
2023/05/18 09:28:44;;;;;;;2.80;0.95;;;15.40;99.90;;;;;;4990852;28;19929;-69
2023/05/18 09:31:16;;;;;;;3.20;1.00;;;15.60;99.90;;;;;;5018576;28;20052;-72
2023/05/18 09:33:43;;;;;;;3.78;1.27;;;15.50;99.90;;;;;;4988063;28;20517;-72
2023/05/18 09:36:11;;;;;;;3.15;1.00;;;15.20;99.90;;;;;;4997578;28;20060;-72
2023/05/18 09:38:45;;;;;;;3.95;1.10;;;15.10;99.90;;;;;;5019342;28;20050;-72
2023/05/18 09:41:20;;;;;;;3.67;1.20;;;14.80;99.90;;;;;;4997009;28;20144;-72
2023/05/18 09:43:52;;;;;;;2.83;1.00;;;14.50;99.90;;;;;;5003864;28;20041;-72
2023/05/18 09:46:19;;;;;;;3.88;1.30;;;14.70;99.90;;;;;;4991280;28;20097;-72
2023/05/18 09:48:50;;;;;;;5.60;1.50;;;15.00;99.90;;;;;;4991015;28;20045;-72
2023/05/18 09:51:17;;;;;;;3.63;1.40;;;15.10;99.90;;;;;;4987444;28;20131;-72
2023/05/18 09:53:54;;;;;;;2.30;1.13;;;14.90;99.90;;;;;;5010031;28;20413;-71
2023/05/18 09:56:22;;;;;;;5.25;1.42;;;14.70;99.90;;;;;;5006093;28;20567;-73
2023/05/18 09:58:48;;;;;;;3.80;1.35;;;14.70;99.90;;;;;;4988748;28;20127;-72
2023/05/18 10:01:14;;;;;;;2.17;1.00;;;14.80;99.90;;;;;;5005006;28;20473;-72
2023/05/18 10:03:40;;;;;;;3.25;1.10;;;14.80;99.90;;;;;;4989163;28;20052;-72
2023/05/18 10:06:12;;;;;;;1.80;0.90;;;14.90;99.90;;;;;;5008496;28;20038;-72
2023/05/18 10:08:38;;;;;;;2.10;0.80;;;15.10;99.90;;;;;;4976102;28;20049;-72
2023/05/18 10:11:04;;;;;;;1.52;0.70;;;15.10;99.90;;;;;;4988792;28;20061;-72
2023/05/18 10:13:31;;;;;;;2.10;0.80;;;15.20;99.90;;;;;;4985218;28;20156;-73
2023/05/18 10:15:59;;;;;;;2.20;0.90;;;15.30;99.90;;;;;;4985948;28;20057;-72
2023/05/18 10:18:27;;;;;;;4.35;1.50;;;15.40;99.90;;;;;;5021862;28;20053;-73
2023/05/18 10:20:58;;;;;;;4.45;1.58;;;15.10;99.90;;;;;;5027346;28;20077;-73
2023/05/18 10:23:25;;;;;;;4.10;1.10;;;14.90;99.90;;;;;;4979156;28;20476;-72
2023/05/18 10:25:52;;;;;;;5.38;1.33;;;14.90;99.90;;;;;;4979094;28;20401;-72
2023/05/18 10:28:27;;;;;;;3.47;1.33;;;15.00;99.90;;;;;;4992382;28;20042;-72
2023/05/18 10:30:54;;;;;;;5.15;1.77;;;15.20;99.90;;;;;;4993904;28;20143;-73
2023/05/18 10:33:22;;;;;;;2.40;1.20;;;15.20;99.90;;;;;;4975581;28;20037;-73
2023/05/18 10:35:48;;;;;;;2.90;1.25;;;15.40;99.90;;;;;;4977962;28;20145;-73
2023/05/18 10:38:22;;;;;;;3.22;1.00;;;15.40;99.90;;;;;;4991204;28;20136;-73
2023/05/18 10:40:54;;;;;;;4.78;1.50;;;15.60;99.90;;;;;;4990278;28;20066;-73
2023/05/18 10:43:28;;;;;;;4.45;1.58;;;15.50;99.90;;;;;;4990037;28;20054;-73
2023/05/18 10:46:00;;;;;;;4.00;1.40;;;15.20;99.90;;;;;;4973625;28;20042;-73
2023/05/18 10:48:28;;;;;;;2.97;1.20;;;14.90;99.90;;;;;;4990319;28;20058;-73
2023/05/18 10:50:56;;;;;;;4.38;1.35;;;14.60;99.90;;;;;;4991043;28;20732;-73
2023/05/18 10:53:25;;;;;;;4.07;1.45;;;14.40;99.90;;;;;;4990138;28;20058;-73
2023/05/18 10:55:52;;;;;;;3.35;1.33;;;14.20;99.90;;;;;;4990289;28;20049;-73
2023/05/18 10:58:20;;;;;;;3.30;1.40;;;14.20;99.90;;;;;;4994702;28;20034;-73
2023/05/18 11:00:52;;;;;;;3.65;1.20;;;14.40;99.90;;;;;;4991742;28;20585;-73
2023/05/18 11:03:19;;;;;;;3.10;1.20;;;14.50;99.90;;;;;;5013097;28;20077;-74
2023/05/18 11:05:50;;;;;;;3.58;1.25;;;14.70;99.90;;;;;;4990440;28;20054;-73
2023/05/18 11:08:26;;;;;;;1.58;0.82;;;14.90;99.90;;;;;;4988874;28;20038;-74
2023/05/18 11:11:02;;;;;;;2.33;1.13;;;15.30;99.90;;;;;;4986127;28;20484;-73
2023/05/18 11:13:31;;;;;;;;;;;15.80;99.90;;;;;;4978518;28;20493;-74
2023/05/18 11:15:58;;;;;;;4.20;1.42;;;16.10;99.90;;;;;;5010208;28;19926;-74
2023/05/18 11:18:49;;;;;;;4.18;1.42;;;15.80;99.90;;;;;;5019443;28;20551;-73
2023/05/18 11:21:34;;;;;;;3.20;1.25;;;15.60;99.90;;;;;;4991140;28;20039;-74
2023/05/18 11:24:22;;;;;;;3.08;1.23;;;15.50;99.90;;;;;;4972973;28;20045;-74
2023/05/18 11:26:56;;;;;;;2.45;1.10;;;15.90;99.90;;;;;;5017856;28;20046;-76
2023/05/18 11:29:34;;;;;;;2.75;1.10;;;16.00;99.90;;;;;;4991533;28;20042;-73
2023/05/18 11:32:01;;;;;;;3.72;1.27;;;15.60;99.90;;;;;;4989396;28;20082;-74
2023/05/18 11:34:41;;;;;;;2.92;1.10;;;15.80;99.90;;;;;;4990378;28;20045;-74
2023/05/18 11:37:37;;;;;;;3.42;1.17;;;16.00;99.90;;;;;;4983711;28;20503;-75
2023/05/18 11:40:23;;;;;;;2.67;1.40;;;16.40;99.90;;;;;;4988036;28;20070;-74
2023/05/18 11:42:58;;;;;;;3.58;1.55;;;16.50;99.90;;;;;;4988737;28;20385;-75
2023/05/18 11:45:24;;;;;;;3.38;1.05;;;16.60;99.90;;;;;;5009163;28;20033;-74
2023/05/18 11:47:55;;;;;;;2.53;1.00;;;16.90;99.90;;;;;;5010691;28;20060;-75
2023/05/18 11:50:21;;;;;;;1.98;0.73;;;16.90;99.90;;;;;;5006634;28;20430;-75
2023/05/18 11:52:52;;;;;;;2.58;1.00;;;17.10;88.80;;;;;;4993732;28;20057;-72
2023/05/18 11:55:19;;;;;;;2.63;1.00;;;17.20;63.10;;;;;;5010812;28;20096;-71
2023/05/18 11:57:53;;;;;;;3.58;1.55;;;17.30;99.90;;;;;;5019760;28;20125;-71
2023/05/18 12:00:19;;;;;;;2.63;1.02;;;17.20;88.60;;;;;;5025466;28;20050;-72
2023/05/18 12:02:47;;;;;;;2.10;1.10;;;17.30;34.00;;;;;;4977669;28;20050;-72
2023/05/18 12:05:13;;;;;;;2.10;1.13;;;17.30;55.00;;;;;;4993141;28;20080;-71
2023/05/18 12:07:40;;;;;;;2.63;1.00;;;17.70;56.80;;;;;;4982027;28;20080;-71
2023/05/18 12:10:09;;;;;;;2.63;0.88;;;17.90;7.60;;;;;;4991034;28;20046;-73
2023/05/18 12:12:35;;;;;;;3.08;1.25;;;18.10;20.00;;;;;;4989572;28;20056;-70
2023/05/18 12:15:05;;;;;;;;;;;18.20;6.70;;;;;;4993461;28;20041;-70
2023/05/18 12:17:41;;;;;;;3.03;1.33;;;17.90;1.00;;;;;;4991393;28;19955;-70
2023/05/18 12:20:10;;;;;;;3.38;1.33;;;17.70;1.00;;;;;;4991832;28;20053;-70
2023/05/18 12:22:36;;;;;;;1.85;1.00;;;17.50;11.00;;;;;;4989686;28;20504;-71
2023/05/18 12:25:02;;;;;;;3.78;1.27;;;17.40;23.40;;;;;;5022795;28;20263;-70
2023/05/18 12:27:29;;;;;;;3.05;1.00;;;17.20;54.90;;;;;;4990950;28;20137;-70
2023/05/18 12:29:54;;;;;;;4.40;1.33;;;17.30;58.20;;;;;;4990415;28;20571;-71
2023/05/18 12:32:20;;;;;;;3.60;1.20;;;17.30;50.30;;;;;;5010593;28;20050;-71
2023/05/18 12:34:46;;;;;;;5.32;1.83;;;17.20;19.80;;;;;;5011213;28;20051;-71
2023/05/18 12:37:12;;;;;;;3.67;1.40;;;17.00;22.80;;;;;;4993377;28;20045;-71
2023/05/18 12:39:37;;;;;;;2.53;1.33;;;16.90;20.30;;;;;;4993365;28;20454;-71
2023/05/18 12:42:14;;;;;;;2.35;1.02;;;17.20;11.70;;;;;;4992711;28;20065;-71
2023/05/18 12:44:42;;;;;;;5.03;1.40;;;17.40;49.70;;;;;;4993559;28;20485;-71
2023/05/18 12:47:10;;;;;;;6.82;2.10;;;17.50;54.30;;;;;;4977346;28;20050;-71
2023/05/18 12:49:37;;;;;;;3.53;1.38;;;17.40;29.10;;;;;;5011284;28;20056;-71
2023/05/18 12:52:15;;;;;;;3.40;1.08;;;17.10;46.80;;;;;;4976188;28;20069;-71
2023/05/18 12:54:59;;;;;;;4.72;1.70;;;17.10;38.70;;;;;;4976834;28;20128;-71
2023/05/18 12:57:29;;;;;;;2.90;1.55;;;16.60;35.20;;;;;;4993219;28;20056;-71
2023/05/18 12:59:59;;;;;;;4.13;1.25;;;16.20;67.10;;;;;;4993530;28;20556;-71